Aviation Digital Data Service (ADDS)

Output produced by METARs form (2219 UTC 20 October 2018)
found at http://www.aviationweather.gov/metar/data/
 
EDAC 202150Z AUTO VRB01KT 9999 // OVC060/// 07/05 Q1029
TAF EDAC 201700Z 2018/2103 VRB03KT 9999 SCT040
       
EDMA 202150Z AUTO 13003KT 5000 // BKN038/// 06/06 Q1029
TAF EDMA 201700Z 2018/2103 VRB03KT 9000 NSC 
     BECMG 2019/2021 3500 BR 
     TEMPO 2022/2103 0600 FG
       
EDVE 201850Z 28004KT 9999 FEW035 BKN052 10/05 Q1029
TAF EDVE 201700Z 2018/2021 26003KT CAVOK
       
EDDW 202150Z VRB01KT 9999 FEW015 BKN036 09/08 Q1029
TAF EDDW 201700Z 2018/2118 VRB02KT 9999 SCT025 
     BECMG 2021/2024 3000 MIFG 
     TEMPO 2100/2108 0300 FG 
     BECMG 2108/2110 24007KT
       
ETSB 202120Z AUTO 03005KT 9999 // ////// 07/03 Q1030 ///
ETHB 202120Z AUTO 18003KT 9999 // ////// 11/07 Q1030 ///
ETHC 202120Z 22002KT 9999 BKN025 BKN040 10/06 Q1030 BLU
EDLW 202150Z AUTO 16007KT 9999 // FEW230/// 07/05 Q1030
TAF EDLW 201700Z 2018/2118 VRB03KT CAVOK 
     TEMPO 2103/2110 18005KT
       
EDDC 202150Z 26003KT 9999 BKN030 09/04 Q1029
TAF EDDC 201700Z 2018/2118 30005KT CAVOK 
     BECMG 2102/2106 BKN010 
     PROB40 
     TEMPO 2103/2108 BKN006 
     BECMG 2106/2110 BKN015
       
EDDL 202150Z 05003KT CAVOK 05/04 Q1031 NOSIG
TAF EDDL 201700Z 2018/2124 35005KT CAVOK 
     BECMG 2018/2021 VRB02KT 
     PROB30 
     TEMPO 2103/2107 3500 BR 
     BECMG 2104/2106 16005KT 
     BECMG 2116/2118 VRB03KT
       
EDDE 202150Z 21005KT CAVOK 05/02 Q1030
TAF EDDE 201700Z 2018/2118 31005KT 9999 SCT035 
     BECMG 2019/2022 25005KT 
     BECMG 2104/2107 VRB03KT 
     PROB30 
     TEMPO 2107/2110 BKN012
       
ETHS 202120Z 00000KT 9999 BKN045 BKN200 06/05 Q1029 BLU
EDFH 202150Z 05004KT 010V090 CAVOK 06/05 Q1030
TAF EDFH 201700Z 2018/2118 05005KT CAVOK 
     BECMG 2022/2101 11006KT 
     PROB30 
     TEMPO 2105/2108 3000 BR
       
EDDF 202150Z 02007KT CAVOK 10/05 Q1030 NOSIG
TAF EDDF 201700Z 2018/2124 02004KT CAVOK
       
EDNY 202150Z AUTO VRB02KT 3500 1100 R24/1600D // NCD 07/06 Q1029
TAF EDNY 201700Z 2018/2118 VRB03KT 3000 BR NSC 
     TEMPO 2020/2108 1500 BR 
     PROB30 
     TEMPO 2022/2108 0300 FG VV001 
     BECMG 2108/2110 03009KT 9999
       
ETHF 202120Z AUTO 29003KT 3400 // ////// 05/03 Q1031 ///
ETIC 202156Z AUTO 30003KT 9999 OVC210 05/05 A3037 RMK AO2 SLP297 T00450045 $
TAF ETIC 202205Z 2022/2204 VRB06KT 8000 BR SCT120 QNH3034INS 
     TEMPO 2103/2109 3200 BR BKN020 
     BECMG 2108/2109 VRB06KT 9999 NSW SCT025 QNH3032INS 
     BECMG 2115/2116 VRB06KT 9999 BKN025 QNH3032INS 
     BECMG 2122/2123 12006KT 9999 SCT030 QNH3030INS TX13/2112Z TN02/2105Z
       
EDDH 202150Z 25001KT 9999 1200SW R23/P2000N R15/0900V1800U BCFG SCT034 06/06 Q1029 TEMPO 2000
TAF EDDH 201700Z 2018/2124 VRB02KT 9999 SCT025 
     BECMG 2021/2024 4000 MIFG 
     TEMPO 2100/2108 0600 FG 
     BECMG 2108/2110 24007KT 9999
       
EDHI 202150Z AUTO 24002KT 2800 // FEW037/// BKN180/// BKN220/// 08/08 Q1029
TAF EDHI 201400Z 2015/2021 28010KT 9999 SCT035 
     BECMG 2017/2020 VRB02KT
       
EDDV 202150Z 27004KT 9999 SCT025 SCT049 09/06 Q1029
TAF EDDV 201700Z 2018/2118 VRB02KT CAVOK 
     BECMG 2022/2101 4000 BR 
     TEMPO 2101/2108 0500 FG 
     BECMG 2108/2110 24007KT 9999
       
TAF EDAH 201400Z 2015/2024 26010KT 9999 BKN040 
     BECMG 2016/2019 30005KT
       
EDQM 201650Z 01004KT 300V040 CAVOK 09/03 Q1028
TAF EDQM 201700Z 2018/2103 VRB03KT CAVOK 
     PROB30 
     TEMPO 2100/2103 0600 FG
       
ETIH 202156Z AUTO 00000KT 9999 BKN210 05/05 A3039 RMK AO2 SLP302 T00490048 $
ETNH 202120Z 26001KT 8000 MIFG BKN120 BKN210 06/05 Q1028 BLU
TAF ETNH 201600Z 2017/2105 25005KT 9999 NSW SCT050 BKN300 
     TEMPO 2021/2105 18003KT 4000 BR FEW005 BKN040 
     PROB30 2100/2105 VBR03KT 2000 MIFG SCT001 SCT100 BY ETGL
       
ETSH 202120Z 26003KT 9999 FEW038 BKN060 BKN130 09/03 Q1029 BLU
ETSI 202120Z AUTO 24001KT 0050 // ////// 06/05 Q1028 ///
EDSB 202150Z 03006KT CAVOK 09/07 Q1029
TAF EDSB 201700Z 2018/2118 02004KT 8000 NSC 
     BECMG 2020/2023 3000 BCFG 
     TEMPO 2023/2109 0200 FG VV001 
     BECMG 2109/2111 BKN004 
     BECMG 2111/2112 8000 NSC
       
EDVK 202050Z 24003KT 180V280 CAVOK 04/02 Q1030
TAF EDVK 202000Z 2021/2103 VRB03KT CAVOK 
     TEMPO 2100/2103 4000 BR
       
TAF EDHK 201400Z 2015/2018 28008KT 9999 SCT025
       
EDDK 202150Z VRB01KT CAVOK 04/03 Q1031 NOSIG
TAF EDDK 201700Z 2018/2124 33005KT CAVOK 
     BECMG 2018/2021 VRB02KT 
     TEMPO 2104/2109 1200 BCFG 
     PROB30 
     TEMPO 2105/2108 0300 FG OVC000 
     BECMG 2108/2110 13005KT 
     BECMG 2118/2121 VRB03KT
       
ETNL 202120Z 28004KT 9999 MIFG SCT090 08/07 Q1027 BLU+
TAF ETNL 201600Z 2017/2105 29006KT 9999 NSW BKN040 BKN280 
     BECMG 2020/2022 30005KT 4000 BR SCT040 SCT150 
     PROB30 2022/2105 VRB03KT 0300 FG BKN001 SCT300 BY ETGL
       
TAF EDTL 201400Z 2015/2024 02004KT 6000 SCT008 
     BECMG 2018/2020 2500 BR
       
ETHL 202120Z 10001KT 2900 BR SCT032 BKN250 06/06 Q1029 YLO
ETSL 202120Z AUTO 25002KT 4300 // ////// 08/06 Q1028 ///
EDDP 202150Z 28005KT 9999 FEW035 09/04 Q1029 NOSIG
TAF EDDP 201700Z 2018/2118 34005KT 9999 SCT040 
     BECMG 2019/2022 28005KT 
     PROB30 
     TEMPO 2107/2110 BKN012
       
EDHL 201850Z 26003KT 230V300 CAVOK 10/06 Q1028
TAF EDHL 201700Z 2018/2021 24003KT 9999 SCT030
       
EDFM 201920Z 35005KT CAVOK 13/07 Q1029
EDLN 201750Z 00000KT CAVOK 08/06 Q1031
TAF EDLN 201700Z 2018/2103 VRB01KT CAVOK
       
EDDM 202150Z 26002KT 6000 SCT041 SCT150 08/06 Q1028 NOSIG
TAF EDDM 201700Z 2018/2124 VRB03KT 8000 NSC 
     BECMG 2022/2024 3000 BR 
     PROB30 
     TEMPO 2103/2108 0400 FG VV001 
     BECMG 2108/2110 06006KT 9999
       
EDDG 202150Z VRB01KT CAVOK 05/05 Q1030 NOSIG
TAF EDDG 201700Z 2018/2118 VRB02KT CAVOK 
     BECMG 2101/2104 1200 BCFG 
     TEMPO 2104/2108 0500 FG OVC000 
     BECMG 2107/2110 21005KT 9999 
     BECMG 2114/2116 VRB02KT
       
ETSN 202209Z 31002KT 2500 VCFG MIFG FEW220 04/04 Q1028 YLO
TAF ETSN 201900Z 2020/2105 32003KT 7000 NSW FEW040 BKN240 
     BECMG 2020/2022 28005KT 5000 BR FEW040 BKN240 
     TEMPO 2022/2105 VRB02KT 3000 BR FEW040 SCT250 
     PROB30 2100/2105 VRB02KT 0200 FG BKN001 BY ETGL
       
ETHN 202120Z 02005KT 9999 FEW280 08/04 Q1029 BLU+
ETMN 202120Z 22005KT 9999 FEW018 SCT037 10/10 Q1029 BLU+
ETNN 202120Z AUTO 21001KT 4600 // ////// 05/04 Q1031 ///
EDDN 202150Z 36001KT CAVOK 04/03 Q1029
TAF EDDN 201700Z 2018/2118 VRB03KT CAVOK 
     BECMG 2108/2110 06005KT
       
EDLP 202150Z 18003KT 150V250 CAVOK ///// Q1030
TAF EDLP 201700Z 2018/2118 VRB02KT CAVOK 
     PROB30 
     TEMPO 2104/2108 3500 BR
       
ETAR 202156Z 00000KT 9999 CLR 04/04 A3041 RMK AO2A SLP306 T00370037 $
TAF AMD ETAR 202148Z 2021/2124 VRB06KT 9999 SCT030 QNH3036INS 
     BECMG 2021/2022 VRB06KT 9000 BR SKC QNH3034INS 
     TEMPO 2104/2108 3200 BR 
     BECMG 2109/2110 VRB06KT 9999 NSW FEW100 QNH3028INS 
     BECMG 2122/2123 VRB06KT 9000 BR SKC QNH3029INS TX17/2114Z TN02/2106Z
       
EDDR 202150Z 06004KT 030V090 CAVOK 09/05 Q1029
TAF EDDR 201700Z 2018/2118 05007KT CAVOK
       
ETNS 202120Z AUTO 23001KT 9999 // ////// 07/06 Q1028 ///
EDDB 202150Z 27004KT 9999 FEW031 BKN048 09/04 Q1028 NOSIG
TAF EDDB 201700Z 2018/2118 28005KT CAVOK 
     BECMG 2022/2101 4000 BR BKN006 
     TEMPO 2100/2108 0500 FG BKN001 
     BECMG 2107/2110 22005KT 8000 NSC
       
TAF EDTY 201400Z 2015/2024 36005KT CAVOK 
     BECMG 2017/2019 VRB03KT
       
EDGS 201850Z 02004KT CAVOK 08/05 Q1030
TAF EDGS 201700Z 2018/2103 32008KT CAVOK 
     BECMG 2018/2021 03004KT
       
ETAD 202156Z AUTO 08006KT 9999 CLR 06/04 A3042 RMK AO2 SLP298 T00580038 $
TAF AMD ETAD 201841Z 2018/2120 04006KT 9999 SKC QNH3039INS 
     BECMG 2022/2023 04006KT 6000 BR SKC QNH3034INS 
     BECMG 2108/2109 04006KT 9999 NSW SKC QNH3030INS TX17/2114Z TN04/2106Z LAST
NO AMDS AFT 2018 NEXT 2109
       
EDDS 202150Z 29005KT CAVOK 09/06 Q1029
TAF EDDS 201700Z 2018/2118 VRB03KT CAVOK 
     PROB40 
     TEMPO 2102/2108 1200 BCFG BKN002
       
EDDT 202150Z VRB02KT 9999 FEW025 10/05 Q1028
TAF EDDT 201700Z 2018/2118 28005KT CAVOK 
     BECMG 2022/2101 4000 BR BKN006 
     TEMPO 2100/2108 0500 FG BKN001 
     BECMG 2107/2110 22005KT 8000 NSC
       
EDXW 201650Z 31005KT CAVOK 11/08 Q1028
TAF EDXW 201700Z 2018/2021 30005KT CAVOK
       
ETOU 202156Z AUTO 03003KT 9999 CLR 10/05 A3042 RMK AO2 SLP304 T00970049 $
TAF ETOU 201056Z 2011/2117 04006KT 9999 SCT040 SKC QNH3034INS 
     BECMG 2102/2103 05006KT 8000 BR FEW150 QNH3037INS 
     BECMG 2107/2108 06012KT 9999 NSW FEW120 QNH3036INS TX17/2014Z TN05/2106Z
LAST NO AMDS AFT 2011 NEXT 2103
       
ETNT 202134Z 26003KT 0050 R26/1500D FG FEW230 11/10 Q1029 RED
TAF AMD ETNT 202135Z 2021/2105 22003KT 3000 MIFG FEW035 FEW230 
     TEMPO 2021/2101 VRB02KT 0100 FG FEW035 FEW230 
     BECMG 2101/2102 VRB02KT 0100 FG FEW035 FEW230 BY ETGL
       
ETNW 202120Z AUTO 25005KT 5000 // ////// 10/07 Q1030 ///
TAF ETNW 201600Z 2017/2117 25005KT 9999 NSW BKN040 
     TEMPO 2021/2109 18005KT 7000 NSW BKN015 
     PROB30 2100/2107 VRB03KT 4000 BR SCT030 BY ETGL